Time;durP1;ratioP1;P1;durP2;ratioP2;P2;SDS_P1;SDS_P2;PMS_P1;PMS_P2;Temp;Humidity;BMP_temperature;BMP_pressure;BME280_temperature;BME280_humidity;BME280_pressure;Samples;Min_cycle;Max_cycle;Signal;HPM_P1;HPM_P2
2023/12/20 00:00:40;;;;;;;;;;;;;;;4.54;100.00;96511.13;5065773;28;19968;-73
2023/12/20 00:03:06;;;;;;;;;;;;;;;4.55;100.00;96510.13;5065619;28;20037;-73
2023/12/20 00:05:32;;;;;;;;;;;;;;;4.56;100.00;96503.97;5065516;28;19956;-73
2023/12/20 00:07:58;;;;;;;;;;;;;;;4.55;100.00;96500.53;5065377;28;19961;-76
2023/12/20 00:10:23;;;;;;;;;;;;;;;4.56;100.00;96488.38;5065242;28;19952;-74
2023/12/20 00:12:49;;;;;;;;;;;;;;;4.57;100.00;96484.78;5065246;28;19959;-74
2023/12/20 00:15:15;;;;;;;;;;;;;;;4.57;100.00;96492.56;5064338;28;19979;-74
2023/12/20 00:17:41;;;;;;;;;;;;;;;4.56;100.00;96478.78;5065291;28;20240;-74
2023/12/20 00:20:07;;;;;;;;;;;;;;;4.57;100.00;96482.19;5065216;28;19953;-74
2023/12/20 00:22:33;;;;;;;;;;;;;;;4.56;100.00;96486.59;5065060;28;19977;-74
2023/12/20 00:24:59;;;;;;;;;;;;;;;4.55;100.00;96489.34;5065356;28;19960;-74
2023/12/20 00:27:24;;;;;;;;;;;;;;;4.54;100.00;96482.56;5064643;28;20028;-76
2023/12/20 00:29:50;;;;;;;;;;;;;;;4.52;100.00;96495.72;5064880;28;19961;-73
2023/12/20 00:32:16;;;;;;;;;;;;;;;4.50;100.00;96479.50;5064688;28;19954;-73
2023/12/20 00:34:43;;;;;;;;;;;;;;;4.52;100.00;96484.53;5064716;28;20250;-73
2023/12/20 00:37:09;;;;;;;;;;;;;;;4.51;100.00;96470.72;5064411;28;20240;-73
2023/12/20 00:39:34;;;;;;;;;;;;;;;4.51;100.00;96468.13;5064896;28;19960;-72
2023/12/20 00:42:00;;;;;;;;;;;;;;;4.51;100.00;96469.91;5064766;28;19970;-73
2023/12/20 00:44:26;;;;;;;;;;;;;;;4.52;100.00;96463.75;5064918;28;19962;-68
2023/12/20 00:46:52;;;;;;;;;;;;;;;4.50;100.00;96458.72;5064718;28;19960;-72
2023/12/20 00:49:18;;;;;;;;;;;;;;;4.48;100.00;96466.69;5064820;28;20137;-74
2023/12/20 00:51:43;;;;;;;;;;;;;;;4.49;100.00;96464.88;5064158;28;19940;-73
2023/12/20 00:54:09;;;;;;;;;;;;;;;4.50;100.00;96469.13;5063239;28;19963;-73
2023/12/20 00:56:35;;;;;;;;;;;;;;;4.51;100.00;96467.31;5064148;28;19954;-73
2023/12/20 00:59:01;;;;;;;;;;;;;;;4.50;100.00;96476.91;5064636;28;19961;-73
2023/12/20 01:01:27;;;;;;;;;;;;;;;4.48;100.00;96474.47;5064614;28;19953;-73
2023/12/20 01:03:53;;;;;;;;;;;;;;;4.48;100.00;96478.88;5064236;28;19962;-71
2023/12/20 01:06:19;;;;;;;;;;;;;;;4.50;100.00;96476.09;5063897;28;19955;-72
2023/12/20 01:08:44;;;;;;;;;;;;;;;4.52;100.00;96487.13;5063826;28;20062;-72
2023/12/20 01:11:10;;;;;;;;;;;;;;;4.51;100.00;96488.09;5063316;28;19953;-71
2023/12/20 01:13:36;;;;;;;;;;;;;;;4.50;100.00;96489.09;5064114;28;19971;-71
2023/12/20 01:16:02;;;;;;;;;;;;;;;4.50;100.00;96497.69;5064350;28;20022;-72
2023/12/20 01:18:28;;;;;;;;;;;;;;;4.51;100.00;96488.88;5063734;28;20144;-71
2023/12/20 01:20:54;;;;;;;;;;;;;;;4.50;100.00;96489.09;5064233;28;20009;-71
2023/12/20 01:23:20;;;;;;;;;;;;;;;4.49;100.00;96490.84;5063682;28;20255;-74
2023/12/20 01:25:46;;;;;;;;;;;;;;;4.49;100.00;96488.25;5063977;28;19959;-70
2023/12/20 01:28:11;;;;;;;;;;;;;;;4.48;100.00;96482.28;5064377;28;19997;-71
2023/12/20 01:30:37;;;;;;;;;;;;;;;4.52;100.00;96484.53;5063765;28;19958;-70
2023/12/20 01:33:03;;;;;;;;;;;;;;;4.54;100.00;96479.97;5064105;28;19953;-70
2023/12/20 01:35:29;;;;;;;;;;;;;;;4.57;100.00;96490.78;5062727;28;19965;-69
2023/12/20 01:37:58;;;;;;;;;;;;;;;4.59;100.00;96486.22;5063892;28;20052;-69
2023/12/20 01:40:24;;;;;;;;;;;;;;;4.61;100.00;96494.63;5064020;28;19959;-74
2023/12/20 01:43:01;;;;;;;;;;;;;;;4.62;100.00;96482.44;5063977;28;19961;-73
2023/12/20 01:45:27;;;;;;;;;;;;;;;4.62;100.00;96490.22;5063045;28;19971;-74
2023/12/20 01:47:54;;;;;;;;;;;;;;;4.61;100.00;96480.84;5064061;28;19956;-74
2023/12/20 01:50:20;;;;;;;;;;;;;;;4.61;100.00;96486.84;5063994;28;20121;-74
2023/12/20 01:52:46;;;;;;;;;;;;;;;4.62;100.00;96498.84;5064181;28;20170;-74
2023/12/20 01:55:15;;;;;;;;;;;;;;;4.60;100.00;96485.25;5064003;28;19951;-75
2023/12/20 01:57:41;;;;;;;;;;;;;;;4.58;100.00;96479.41;5063586;28;19959;-70
2023/12/20 02:00:09;;;;;;;;;;;;;;;4.59;100.00;96475.03;5063875;28;20134;-72
2023/12/20 02:02:36;;;;;;;;;;;;;;;4.57;100.00;96479.59;5063539;28;19964;-72
2023/12/20 02:05:03;;;;;;;;;;;;;;;4.57;100.00;96471.78;5063687;28;19951;-72
2023/12/20 02:07:30;;;;;;;;;;;;;;;4.56;100.00;96465.81;5063775;28;19966;-72
2023/12/20 02:09:56;;;;;;;;;;;;;;;4.58;100.00;96470.84;5063905;28;19962;-71
2023/12/20 02:12:22;;;;;;;;;;;;;;;4.57;100.00;96477.78;5063650;28;20264;-71
2023/12/20 02:14:48;;;;;;;;;;;;;;;4.56;100.00;96471.00;5063777;28;19985;-72
2023/12/20 02:17:15;;;;;;;;;;;;;;;4.58;100.00;96470.84;5063713;28;19959;-69
2023/12/20 02:19:41;;;;;;;;;;;;;;;4.57;100.00;96470.00;5063729;28;19962;-69
2023/12/20 02:22:13;;;;;;;;;;;;;;;4.56;100.00;96471.00;5064442;28;19967;-70
2023/12/20 02:24:38;;;;;;;;;;;;;;;4.53;100.00;96471.34;5067347;28;20331;-69
2023/12/20 02:27:08;;;;;;;;;;;;;;;4.53;100.00;96470.53;5067498;28;19952;-70
2023/12/20 02:29:34;;;;;;;;;;;;;;;4.53;100.00;96473.13;5067098;28;20017;-69
2023/12/20 02:32:00;;;;;;;;;;;;;;;4.55;100.00;96479.75;5067103;28;19970;-70
2023/12/20 02:34:26;;;;;;;;;;;;;;;4.56;100.00;96472.78;5067312;28;19965;-71
2023/12/20 02:36:52;;;;;;;;;;;;;;;4.58;100.00;96466.44;5067305;28;20021;-70
2023/12/20 02:39:18;;;;;;;;;;;;;;;4.59;100.00;96467.22;5067102;28;19956;-72
2023/12/20 02:41:44;;;;;;;;;;;;;;;4.59;100.00;96468.03;5067087;28;19958;-72
2023/12/20 02:44:10;;;;;;;;;;;;;;;4.59;100.00;96467.22;5066585;28;20003;-72
2023/12/20 02:46:36;;;;;;;;;;;;;;;4.59;100.00;96470.63;5067359;28;19946;-72
2023/12/20 02:49:01;;;;;;;;;;;;;;;4.58;100.00;96468.22;5066808;28;19958;-72
2023/12/20 02:51:27;;;;;;;;;;;;;;;4.59;100.00;96470.63;5067040;28;19959;-71
2023/12/20 02:53:53;;;;;;;;;;;;;;;4.59;100.00;96475.03;5066640;28;20021;-68
2023/12/20 02:56:19;;;;;;;;;;;;;;;4.59;100.00;96470.63;5066915;28;20240;-70
2023/12/20 02:58:45;;;;;;;;;;;;;;;4.59;100.00;96475.81;5066559;28;20292;-69
2023/12/20 03:01:11;;;;;;;;;;;;;;;4.58;100.00;96474.22;5066572;28;19957;-70
2023/12/20 03:03:36;;;;;;;;;;;;;;;4.58;100.00;96479.41;5066424;28;19974;-70
2023/12/20 03:06:02;;;;;;;;;;;;;;;4.58;100.00;96473.44;5066656;28;19972;-70
2023/12/20 03:08:28;;;;;;;;;;;;;;;4.58;100.00;96482.03;5066516;28;19963;-69
2023/12/20 03:10:54;;;;;;;;;;;;;;;4.58;100.00;96481.22;5066864;28;20016;-69
2023/12/20 03:13:20;;;;;;;;;;;;;;;4.56;100.00;96486.59;5066635;28;19976;-72
2023/12/20 03:15:46;;;;;;;;;;;;;;;4.57;100.00;96479.59;5066455;28;20094;-70
2023/12/20 03:18:11;;;;;;;;;;;;;;;4.54;100.00;96485.16;5066743;28;20241;-70
2023/12/20 03:20:37;;;;;;;;;;;;;;;4.52;100.00;96487.94;5066412;28;20221;-70
2023/12/20 03:23:03;;;;;;;;;;;;;;;4.51;100.00;96483.69;5066446;28;20037;-70
2023/12/20 03:25:29;;;;;;;;;;;;;;;4.48;100.00;96482.28;5066051;28;19958;-70
2023/12/20 03:27:55;;;;;;;;;;;;;;;4.49;100.00;96488.25;5065993;28;19964;-69
2023/12/20 03:30:21;;;;;;;;;;;;;;;4.51;100.00;96498.47;5065938;28;19964;-71
2023/12/20 03:32:47;;;;;;;;;;;;;;;4.52;100.00;96498.31;5065779;28;19960;-69
2023/12/20 03:35:13;;;;;;;;;;;;;;;4.54;100.00;96503.34;5065661;28;19965;-69
2023/12/20 03:37:39;;;;;;;;;;;;;;;4.52;100.00;96505.31;5066195;28;19957;-70
2023/12/20 03:40:05;;;;;;;;;;;;;;;4.50;100.00;96513.25;5066080;28;19967;-69
2023/12/20 03:42:30;;;;;;;;;;;;;;;4.48;100.00;96510.84;5065501;28;20030;-69
2023/12/20 03:44:56;;;;;;;;;;;;;;;4.47;100.00;96521.38;5065816;28;20009;-71
2023/12/20 03:47:22;;;;;;;;;;;;;;;4.45;100.00;96521.59;5065540;28;19947;-70
2023/12/20 03:49:48;;;;;;;;;;;;;;;4.43;100.00;96507.16;5066069;28;20007;-67
2023/12/20 03:52:14;;;;;;;;;;;;;;;4.42;100.00;96511.53;5065470;28;20026;-71
2023/12/20 03:54:42;;;;;;;;;;;;;;;4.43;100.00;96507.97;5065308;28;19960;-71
2023/12/20 03:57:08;;;;;;;;;;;;;;;4.46;100.00;96507.59;5065758;28;19979;-72
2023/12/20 03:59:37;;;;;;;;;;;;;;;4.48;100.00;96512.63;5065796;28;20176;-71
2023/12/20 04:02:03;;;;;;;;;;;;;;;4.45;100.00;96515.56;5065429;28;19956;-71
2023/12/20 04:04:29;;;;;;;;;;;;;;;4.43;100.00;96515.75;5065418;28;19962;-71
2023/12/20 04:06:55;;;;;;;;;;;;;;;4.43;100.00;96512.34;5047466;28;19946;-69
2023/12/20 04:09:21;;;;;;;;;;;;;;;4.45;100.00;96513.81;5065451;28;19962;-72
2023/12/20 04:11:46;;;;;;;;;;;;;;;4.46;100.00;96517.19;5065412;28;19960;-70
2023/12/20 04:14:12;;;;;;;;;;;;;;;4.50;100.00;96522.84;5064878;28;19961;-70
2023/12/20 04:16:39;;;;;;;;;;;;;;;4.50;100.00;96517.66;5065621;28;19942;-69
2023/12/20 04:19:04;;;;;;;;;;;;;;;4.51;100.00;96517.47;5065391;28;19971;-70
2023/12/20 04:21:30;;;;;;;;;;;;;;;4.54;100.00;96531.91;5064830;28;20211;-69
2023/12/20 04:23:56;;;;;;;;;;;;;;;4.52;100.00;96524.28;5064889;28;19967;-69
2023/12/20 04:26:22;;;;;;;;;;;;;;;4.53;100.00;96528.47;5064891;28;19962;-72
2023/12/20 04:28:48;;;;;;;;;;;;;;;4.52;100.00;96523.47;5064912;28;19958;-74
2023/12/20 04:31:14;;;;;;;;;;;;;;;4.46;100.00;96517.19;5064918;28;19962;-74
2023/12/20 04:33:39;;;;;;;;;;;;;;;4.39;100.00;96514.50;5064653;28;19960;-73
2023/12/20 04:36:05;;;;;;;;;;;;;;;4.34;100.00;96516.00;5064879;28;19960;-74
2023/12/20 04:38:31;;;;;;;;;;;;;;;4.33;100.00;96525.59;5064841;28;19958;-73
2023/12/20 04:40:57;;;;;;;;;;;;;;;4.34;100.00;96523.81;5064916;28;19959;-73
2023/12/20 04:43:23;;;;;;;;;;;;;;;4.34;100.00;96537.59;5064713;28;20293;-72
2023/12/20 04:45:49;;;;;;;;;;;;;;;4.37;100.00;96539.03;5064601;28;19942;-70
2023/12/20 04:48:15;;;;;;;;;;;;;;;4.38;100.00;96538.84;5064335;28;20016;-74
2023/12/20 04:50:40;;;;;;;;;;;;;;;4.39;100.00;96531.84;5064549;28;20227;-74
2023/12/20 04:53:06;;;;;;;;;;;;;;;4.41;100.00;96533.31;5064895;28;19958;-74
2023/12/20 04:55:32;;;;;;;;;;;;;;;4.39;100.00;96555.22;5064757;28;19994;-74
2023/12/20 04:57:58;;;;;;;;;;;;;;;4.40;100.00;96549.06;5064227;28;19958;-74
2023/12/20 05:00:24;;;;;;;;;;;;;;;4.40;100.00;96551.66;5064199;28;19967;-74
2023/12/20 05:02:49;;;;;;;;;;;;;;;4.39;100.00;96552.63;5063944;28;19971;-74
2023/12/20 05:05:17;;;;;;;;;;;;;;;4.39;100.00;96548.25;5064538;28;19960;-72
2023/12/20 05:07:43;;;;;;;;;;;;;;;4.40;100.00;96554.25;5064382;28;19963;-72
2023/12/20 05:10:09;;;;;;;;;;;;;;;4.40;100.00;96554.25;5064421;28;19967;-72
2023/12/20 05:12:35;;;;;;;;;;;;;;;4.39;100.00;96563.84;5064375;28;19955;-71
2023/12/20 05:15:01;;;;;;;;;;;;;;;4.40;100.00;96567.25;5064396;28;19955;-71
2023/12/20 05:17:27;;;;;;;;;;;;;;;4.41;100.00;96574.03;5063872;28;19945;-72
2023/12/20 05:19:52;;;;;;;;;;;;;;;4.40;100.00;96583.63;5064680;28;20165;-72
2023/12/20 05:22:19;;;;;;;;;;;;;;;4.41;100.00;96587.00;5064201;28;20305;-68
2023/12/20 05:24:45;;;;;;;;;;;;;;;4.40;100.00;96583.63;5064318;28;19964;-74
2023/12/20 05:27:11;;;;;;;;;;;;;;;4.40;100.00;96593.19;5063897;28;19990;-74
2023/12/20 05:29:37;;;;;;;;;;;;;;;4.39;100.00;96594.16;5063820;28;19961;-74
2023/12/20 05:32:04;;;;;;;;;;;;;;;4.40;100.00;96582.81;5063550;28;19956;-74
2023/12/20 05:34:30;;;;;;;;;;;;;;;4.40;100.00;96594.00;5064166;28;19978;-73
2023/12/20 05:36:57;;;;;;;;;;;;;;;4.40;100.00;96601.78;5064104;28;19959;-74
2023/12/20 05:39:23;;;;;;;;;;;;;;;4.40;100.00;96595.78;5064583;28;20234;-74
2023/12/20 05:41:49;;;;;;;;;;;;;;;4.40;100.00;96593.19;5064077;28;19961;-73
2023/12/20 05:44:15;;;;;;;;;;;;;;;4.40;100.00;96599.19;5064030;28;19965;-73
2023/12/20 05:46:40;;;;;;;;;;;;;;;4.41;100.00;96605.19;5063958;28;20018;-73
2023/12/20 05:49:06;;;;;;;;;;;;;;;4.40;100.00;96611.38;5064234;28;19967;-73
2023/12/20 05:51:32;;;;;;;;;;;;;;;4.40;100.00;96606.19;5063559;28;20013;-73
2023/12/20 05:53:58;;;;;;;;;;;;;;;4.39;100.00;96604.56;5063622;28;19956;-73
2023/12/20 05:56:24;;;;;;;;;;;;;;;4.40;100.00;96608.78;5064130;28;19957;-74
2023/12/20 05:58:50;;;;;;;;;;;;;;;4.39;100.00;96607.16;5068171;28;19963;-70
2023/12/20 06:01:17;;;;;;;;;;;;;;;4.38;100.00;96613.34;5067901;28;19982;-74
2023/12/20 06:03:43;;;;;;;;;;;;;;;4.37;100.00;96607.34;5068032;28;19965;-73
2023/12/20 06:06:09;;;;;;;;;;;;;;;4.37;100.00;96609.94;5067721;28;20254;-74
2023/12/20 06:08:36;;;;;;;;;;;;;;;4.38;100.00;96631.50;5067636;28;20239;-74
2023/12/20 06:11:01;;;;;;;;;;;;;;;4.37;100.00;96640.31;5067099;28;19954;-73
2023/12/20 06:13:27;;;;;;;;;;;;;;;4.37;100.00;96637.72;5067667;28;19971;-74
2023/12/20 06:15:56;;;;;;;;;;;;;;;4.36;100.00;96629.09;5067149;28;20175;-70
2023/12/20 06:18:22;;;;;;;;;;;;;;;4.36;100.00;96630.88;5067172;28;19969;-70
2023/12/20 06:20:48;;;;;;;;;;;;;;;4.33;100.00;96639.03;5067604;28;19957;-73
2023/12/20 06:23:14;;;;;;;;;;;;;;;4.31;100.00;96635.81;5066984;28;20007;-74
2023/12/20 06:25:40;;;;;;;;;;;;;;;4.27;100.00;96625.75;5067641;28;20241;-74
2023/12/20 06:28:06;;;;;;;;;;;;;;;4.25;100.00;96621.72;5067271;28;19993;-74
2023/12/20 06:30:33;;;;;;;;;;;;;;;4.20;100.00;96619.66;5067530;28;19959;-74
2023/12/20 06:32:58;;;;;;;;;;;;;;;4.15;100.00;96624.53;5066650;28;19966;-74
2023/12/20 06:35:24;;;;;;;;;;;;;;;4.12;100.00;96629.28;5067210;28;19958;-74
2023/12/20 06:37:50;;;;;;;;;;;;;;;4.09;100.00;96634.81;5067254;28;19954;-75
2023/12/20 06:40:16;;;;;;;;;;;;;;;4.08;100.00;96644.38;5066659;28;20196;-75
2023/12/20 06:42:42;;;;;;;;;;;;;;;4.07;100.00;96646.16;5067050;28;19979;-75
2023/12/20 06:45:08;;;;;;;;;;;;;;;4.06;100.00;96646.34;5067257;28;19944;-75
2023/12/20 06:47:34;;;;;;;;;;;;;;;4.06;100.00;96649.72;5067080;28;19968;-75
2023/12/20 06:50:00;;;;;;;;;;;;;;;4.06;100.00;96638.56;5067093;28;20230;-75
2023/12/20 06:52:26;;;;;;;;;;;;;;;4.08;100.00;96644.38;5067176;28;20001;-68
2023/12/20 06:54:52;;;;;;;;;;;;;;;4.06;100.00;96648.94;5067082;28;19958;-70
2023/12/20 06:57:19;;;;;;;;;;;;;;;4.05;100.00;96653.31;5066617;28;20012;-68
2023/12/20 06:59:45;;;;;;;;;;;;;;;4.05;100.00;96655.91;5066664;28;19950;-67
2023/12/20 07:02:11;;;;;;;;;;;;;;;4.03;100.00;96655.28;5066674;28;20261;-67
2023/12/20 07:04:39;;;;;;;;;;;;;;;4.02;100.00;96665.81;5065913;28;20372;-67
2023/12/20 07:07:05;;;;;;;;;;;;;;;3.99;100.00;96674.75;5066653;28;19961;-67
2023/12/20 07:09:30;;;;;;;;;;;;;;;3.99;100.00;96673.94;5065272;28;19956;-67
2023/12/20 07:11:56;;;;;;;;;;;;;;;4.00;100.00;96675.56;5066613;28;19957;-71
2023/12/20 07:14:22;;;;;;;;;;;;;;;4.01;100.00;96678.00;5066073;28;20253;-75
2023/12/20 07:16:48;;;;;;;;;;;;;;;4.02;100.00;96678.78;5066474;28;19955;-74
2023/12/20 07:19:14;;;;;;;;;;;;;;;4.04;100.00;96669.06;5048844;28;19982;-74
2023/12/20 07:21:40;;;;;;;;;;;;;;;4.06;100.00;96686.06;5066086;28;20132;-73
2023/12/20 07:24:05;;;;;;;;;;;;;;;4.07;100.00;96687.69;5066376;28;19965;-74
2023/12/20 07:26:31;;;;;;;;;;;;;;;4.09;100.00;96691.91;5066083;28;19969;-73
2023/12/20 07:28:58;;;;;;;;;;;;;;;4.14;100.00;96689.63;5066153;28;19966;-74
2023/12/20 07:31:24;;;;;;;;;;;;;;;4.15;100.00;96702.41;5066327;28;19955;-74
2023/12/20 07:33:50;;;;;;;;;;;;;;;4.19;100.00;96708.88;5066068;28;20230;-67
2023/12/20 07:36:16;;;;;;;;;;;;;;;4.22;100.00;96710.31;5066031;28;19954;-67
2023/12/20 07:38:44;;;;;;;;;;;;;;;4.24;100.00;96710.94;5066120;28;19988;-67
2023/12/20 07:41:10;;;;;;;;;;;;;;;4.24;100.00;96714.38;5066113;28;19960;-67
2023/12/20 07:43:36;;;;;;;;;;;;;;;4.27;100.00;96716.59;5065469;28;19965;-68
2023/12/20 07:46:11;;;;;;;;;;;;;;;4.30;100.00;96720.66;5048317;28;19957;-67
2023/12/20 07:48:37;;;;;;;;;;;;;;;4.33;100.00;96706.53;5065796;28;19948;-67
2023/12/20 07:51:04;;;;;;;;;;;;;;;4.35;100.00;96715.75;5066057;28;19962;-73
2023/12/20 07:53:30;;;;;;;;;;;;;;;4.38;100.00;96722.41;5065557;28;20261;-74
2023/12/20 07:55:55;;;;;;;;;;;;;;;4.41;100.00;96728.06;5065590;28;19985;-73
2023/12/20 07:58:22;;;;;;;;;;;;;;;4.42;100.00;96721.06;5065912;28;19999;-74
2023/12/20 08:00:48;;;;;;;;;;;;;;;4.43;100.00;96726.09;5065633;28;19959;-73
2023/12/20 08:03:13;;;;;;;;;;;;;;;4.45;100.00;96729.34;5065414;28;19970;-73
2023/12/20 08:05:40;;;;;;;;;;;;;;;4.46;100.00;96722.34;5065630;28;19955;-72
2023/12/20 08:08:06;;;;;;;;;;;;;;;4.49;100.00;96724.59;5065563;28;20021;-69
2023/12/20 08:10:32;;;;;;;;;;;;;;;4.46;100.00;96723.16;5064837;28;19961;-69
2023/12/20 08:12:58;;;;;;;;;;;;;;;4.47;100.00;96729.97;5064998;28;19941;-69
2023/12/20 08:15:24;;;;;;;;;;;;;;;4.47;100.00;96727.38;5064929;28;20259;-69
2023/12/20 08:17:53;;;;;;;;;;;;;;;4.48;100.00;96722.97;5065018;28;20023;-69
2023/12/20 08:20:18;;;;;;;;;;;;;;;4.58;100.00;96717.56;5064780;28;19961;-69
2023/12/20 08:22:44;;;;;;;;;;;;;;;4.72;100.00;96728.97;5065254;28;19966;-70
2023/12/20 08:25:10;;;;;;;;;;;;;;;4.89;100.00;96730.47;5064740;28;19965;-74
2023/12/20 08:27:39;;;;;;;;;;;;;;;5.03;100.00;96728.91;5065065;28;19959;-67
2023/12/20 08:30:06;;;;;;;;;;;;;;;5.14;100.00;96733.66;5065047;28;19957;-67
2023/12/20 08:32:32;;;;;;;;;;;;;;;5.24;100.00;96738.63;5065017;28;20134;-67
2023/12/20 08:34:58;;;;;;;;;;;;;;;5.31;100.00;96747.31;5065264;28;19959;-67
2023/12/20 08:37:24;;;;;;;;;;;;;;;5.36;100.00;96747.63;5065049;28;19956;-67
2023/12/20 08:39:50;;;;;;;;;;;;;;;5.36;100.00;96752.81;5065030;28;19960;-67
2023/12/20 08:42:15;;;;;;;;;;;;;;;5.34;100.00;96746.19;5065210;28;20261;-67
2023/12/20 08:44:41;;;;;;;;;;;;;;;5.24;100.00;96755.03;5064936;28;19973;-74
2023/12/20 08:47:07;;;;;;;;;;;;;;;5.08;100.00;96756.00;5064520;28;20008;-73
2023/12/20 08:49:33;;;;;;;;;;;;;;;5.06;100.00;96755.34;5064532;28;19959;-71
2023/12/20 08:51:59;;;;;;;;;;;;;;;5.30;100.00;96756.13;5064939;28;20002;-72
2023/12/20 08:54:25;;;;;;;;;;;;;;;5.49;100.00;96752.19;5064230;28;20065;-73
2023/12/20 08:56:50;;;;;;;;;;;;;;;5.44;100.00;96775.34;5064784;28;20258;-73
2023/12/20 08:59:18;;;;;;;;;;;;;;;5.34;100.00;96773.00;5064545;28;19958;-72
2023/12/20 09:01:44;;;;;;;;;;;;;;;5.15;100.00;96758.69;5063805;28;19984;-74
2023/12/20 09:04:10;;;;;;;;;;;;;;;4.89;100.00;96753.84;5064515;28;19961;-72
2023/12/20 09:06:36;;;;;;;;;;;;;;;4.71;100.00;96764.56;5064556;28;19965;-73
2023/12/20 09:09:02;;;;;;;;;;;;;;;4.59;100.00;96769.31;5064400;28;19964;-71
2023/12/20 09:11:28;;;;;;;;;;;;;;;4.50;100.00;96761.78;5064798;28;19944;-72
2023/12/20 09:13:54;;;;;;;;;;;;;;;4.42;100.00;96763.41;5064076;28;19963;-72
2023/12/20 09:16:20;;;;;;;;;;;;;;;4.30;100.00;96753.59;5064522;28;20194;-72
2023/12/20 09:18:45;;;;;;;;;;;;;;;4.18;100.00;96753.16;5064395;28;19963;-72
2023/12/20 09:21:12;;;;;;;;;;;;;;;4.09;100.00;96760.16;5064496;28;20262;-70
2023/12/20 09:23:38;;;;;;;;;;;;;;;4.03;100.00;96761.69;5063670;28;20034;-72
2023/12/20 09:26:04;;;;;;;;;;;;;;;3.99;100.00;96767.34;5064184;28;19954;-72
2023/12/20 09:28:30;;;;;;;;;;;;;;;3.95;100.00;96764.31;5064427;28;19967;-72
2023/12/20 09:30:56;;;;;;;;;;;;;;;4.11;100.00;96773.78;5063585;28;20057;-72
2023/12/20 09:33:21;;;;;;;;;;;;;;;4.27;100.00;96762.53;5063626;28;20309;-73
2023/12/20 09:35:47;;;;;;;;;;;;;;;4.50;100.00;96751.38;5064295;28;20016;-72
2023/12/20 09:38:15;;;;;;;;;;;;;;;4.77;100.00;96750.06;5064275;28;19996;-72
2023/12/20 09:40:42;;;;;;;;;;;;;;;5.09;100.00;96759.41;5063709;28;19941;-71
2023/12/20 09:43:13;;;;;;;;;;;;;;;5.38;100.00;96750.84;5063795;28;19958;-73
2023/12/20 09:45:40;;;;;;;;;;;;;;;5.57;100.00;96756.53;5064137;28;19955;-72
2023/12/20 09:48:07;;;;;;;;;;;;;;;5.65;100.00;96761.66;5063866;28;19973;-72
2023/12/20 09:50:33;;;;;;;;;;;;;;;5.65;100.00;96753.84;5064137;28;20227;-72
2023/12/20 09:53:00;;;;;;;;;;;;;;;5.57;100.00;96748.72;5064266;28;19979;-72
2023/12/20 09:55:27;;;;;;;;;;;;;;;5.54;100.00;96762.06;5063910;28;19964;-74
2023/12/20 09:57:53;;;;;;;;;;;;;;;5.55;100.00;96761.09;5063977;28;19963;-69
2023/12/20 10:00:19;;;;;;;;;;;;;;;5.61;100.00;96763.00;5063860;28;20001;-67
2023/12/20 10:02:59;;;;;;;;;;;;;;;5.60;100.00;96756.16;5063442;28;19997;-67
2023/12/20 10:05:29;;;;;;;;;;;;;;;5.64;100.00;96755.63;5063632;28;19971;-68
2023/12/20 10:07:55;;;;;;;;;;;;;;;5.68;100.00;96759.47;5063413;28;19966;-67
2023/12/20 10:10:21;;;;;;;;;;;;;;;5.62;100.00;96749.78;5063407;28;20185;-67
2023/12/20 10:13:17;;;;;;;;;;;;;;;5.62;100.00;96773.19;5064035;28;20262;-67
2023/12/20 10:15:43;;;;;;;;;;;;;;;5.62;100.00;96751.59;5046954;28;20151;-73
2023/12/20 10:18:09;;;;;;;;;;;;;;;5.71;100.00;96760.91;5063893;28;19955;-73
2023/12/20 10:20:35;;;;;;;;;;;;;;;5.75;100.00;96741.34;5063974;28;19987;-73
2023/12/20 10:23:01;;;;;;;;;;;;;;;5.73;100.00;96735.50;5063744;28;20235;-73
2023/12/20 10:25:27;;;;;;;;;;;;;;;5.69;100.00;96726.44;5063748;28;19962;-74
2023/12/20 10:28:12;;;;;;;;;;;;;;;5.74;100.00;96741.53;5063708;28;20160;-73
2023/12/20 10:30:38;;;;;;;;;;;;;;;5.95;100.00;96710.41;5063162;28;19964;-73
2023/12/20 10:33:05;;;;;;;;;;;;;;;6.20;100.00;96689.28;5063352;28;19954;-70
2023/12/20 10:35:31;;;;;;;;;;;;;;;6.53;100.00;96666.16;5063753;28;19971;-73
2023/12/20 10:37:58;;;;;;;;;;;;;;;6.64;100.00;96667.47;5063439;28;19957;-73
2023/12/20 10:40:27;;;;;;;;;;;;;;;6.58;100.00;96649.97;5063059;28;20251;-74
2023/12/20 10:42:53;;;;;;;;;;;;;;;6.64;100.00;96630.97;5064688;28;19935;-74
2023/12/20 10:45:19;;;;;;;;;;;;;;;6.50;100.00;96636.06;5067054;28;20004;-73
2023/12/20 10:47:46;;;;;;;;;;;;;;;6.30;100.00;96624.66;5067148;28;20252;-74
2023/12/20 10:50:12;;;;;;;;;;;;;;;6.10;100.00;96661.72;5067111;28;19958;-74
2023/12/20 10:52:38;;;;;;;;;;;;;;;5.91;100.00;96644.06;5067030;28;20006;-74
2023/12/20 10:55:05;;;;;;;;;;;;;;;5.72;100.00;96647.25;5066614;28;20137;-67
2023/12/20 10:57:31;;;;;;;;;;;;;;;5.51;100.00;96651.38;5066758;28;19955;-67
2023/12/20 11:00:00;;;;;;;;;;;;;;;5.38;100.00;96679.84;5067129;28;19957;-67
2023/12/20 11:02:27;;;;;;;;;;;;;;;5.28;100.00;96685.28;5066553;28;19968;-68
2023/12/20 11:04:56;;;;;;;;;;;;;;;5.25;100.00;96694.25;5066469;28;20246;-67
2023/12/20 11:07:46;;;;;;;;;;;;;;;5.48;100.00;96708.97;5066604;28;19952;-69
2023/12/20 11:10:12;;;;;;;;;;;;;;;5.68;100.00;96707.44;5066342;28;19959;-72
2023/12/20 11:12:43;;;;;;;;;;;;;;;5.72;100.00;96653.25;5066059;28;20266;-72
2023/12/20 11:15:10;;;;;;;;;;;;;;;5.69;100.00;96632.78;5066676;28;19961;-73
2023/12/20 11:17:38;;;;;;;;;;;;;;;5.60;100.00;96626.88;5066368;28;19953;-73
2023/12/20 11:20:05;;;;;;;;;;;;;;;5.55;100.00;96646.63;5066417;28;19950;-73
2023/12/20 11:22:32;;;;;;;;;;;;;;;5.51;100.00;96646.19;5066507;28;19965;-73
2023/12/20 11:25:02;;;;;;;;;;;;;;;5.45;100.00;96665.09;5066251;28;19961;-73
2023/12/20 11:27:28;;;;;;;;;;;;;;;5.39;100.00;96651.03;5066253;28;19954;-73
2023/12/20 11:29:56;;;;;;;;;;;;;;;5.30;100.00;96665.13;5066193;28;19956;-72
2023/12/20 11:32:28;;;;;;;;;;;;;;;5.25;100.00;96649.25;5066373;28;19964;-70
2023/12/20 11:34:55;;;;;;;;;;;;;;;5.24;100.00;96645.03;5066398;28;20145;-69
2023/12/20 11:37:24;;;;;;;;;;;;;;;5.31;100.00;96647.72;5066209;28;19966;-70
2023/12/20 11:39:55;;;;;;;;;;;;;;;5.30;100.00;96620.91;5065657;28;19959;-70
2023/12/20 11:42:21;;;;;;;;;;;;;;;5.32;100.00;96644.94;5065706;28;19962;-69
2023/12/20 11:44:47;;;;;;;;;;;;;;;5.33;100.00;96632.72;5066179;28;20019;-70
2023/12/20 11:47:13;;;;;;;;;;;;;;;5.36;100.00;96641.00;5066077;28;19955;-72
2023/12/20 11:49:40;;;;;;;;;;;;;;;5.33;100.00;96648.34;5066038;28;20123;-74
2023/12/20 11:52:06;;;;;;;;;;;;;;;5.25;100.00;96634.44;5066156;28;19957;-72
2023/12/20 11:54:32;;;;;;;;;;;;;;;5.14;100.00;96653.06;5063253;28;19963;-73
2023/12/20 11:56:57;;;;;;;;;;;;;;;5.04;100.00;96670.72;5065665;28;19960;-73
2023/12/20 11:59:23;;;;;;;;;;;;;;;4.96;100.00;96656.03;5065872;28;19959;-73
2023/12/20 12:01:50;;;;;;;;;;;;;;;4.88;100.00;96664.69;5065676;28;19981;-73
2023/12/20 12:04:17;;;;;;;;;;;;;;;4.80;100.00;96636.19;5065555;28;20224;-72
2023/12/20 12:06:44;;;;;;;;;;;;;;;4.73;100.00;96652.69;5065766;28;20153;-69
2023/12/20 12:09:10;;;;;;;;;;;;;;;4.66;100.00;96652.53;5065577;28;19962;-74
2023/12/20 12:11:36;;;;;;;;;;;;;;;4.64;100.00;96652.75;5065550;28;19975;-75
2023/12/20 12:14:02;;;;;;;;;;;;;;;4.67;100.00;96654.19;5065432;28;20229;-74
2023/12/20 12:16:28;;;;;;;;;;;;;;;4.70;100.00;96648.63;5065092;28;19958;-75
2023/12/20 12:18:57;;;;;;;;;;;;;;;4.74;100.00;96646.47;5065562;28;19971;-74
2023/12/20 12:21:23;;;;;;;;;;;;;;;4.76;100.00;96647.13;5065082;28;19953;-75
2023/12/20 12:23:49;;;;;;;;;;;;;;;4.77;100.00;96640.94;5064944;28;20243;-73
2023/12/20 12:26:15;;;;;;;;;;;;;;;4.84;100.00;96655.63;5065641;28;19981;-68
2023/12/20 12:28:42;;;;;;;;;;;;;;;4.88;100.00;96630.13;5065083;28;20229;-75
2023/12/20 12:31:08;;;;;;;;;;;;;;;4.92;100.00;96622.78;5065231;28;19954;-75
2023/12/20 12:33:34;;;;;;;;;;;;;;;4.91;100.00;96628.94;5065076;28;20128;-75
2023/12/20 12:36:01;;;;;;;;;;;;;;;4.88;100.00;96619.72;5065154;28;19954;-74
2023/12/20 12:38:27;;;;;;;;;;;;;;;4.88;100.00;96623.13;5065010;28;20134;-76
2023/12/20 12:40:54;;;;;;;;;;;;;;;4.86;100.00;96647.69;5065002;28;20141;-75
2023/12/20 12:43:22;;;;;;;;;;;;;;;4.86;100.00;96619.09;5064629;28;20220;-73